createdAt,value
2023-01-04T00:01:07.338Z,4.00
2023-01-04T00:03:35.874Z,4.00
2023-01-04T00:06:07.246Z,3.80
2023-01-04T00:08:35.186Z,3.60
2023-01-04T00:11:03.977Z,2.93
2023-01-04T00:13:32.184Z,3.22
2023-01-04T00:16:07.242Z,3.10
2023-01-04T00:18:36.106Z,3.50
2023-01-04T00:21:13.332Z,2.92
2023-01-04T00:23:42.414Z,3.00
2023-01-04T00:26:10.387Z,3.00
2023-01-04T00:28:38.737Z,2.80
2023-01-04T00:31:07.527Z,2.38
2023-01-04T00:33:35.309Z,2.78
2023-01-04T00:36:05.036Z,2.93
2023-01-04T00:38:35.643Z,2.50
2023-01-04T00:41:03.879Z,2.63
2023-01-04T00:43:31.875Z,2.78
2023-01-04T00:46:01.161Z,2.70
2023-01-04T00:48:29.355Z,2.37
2023-01-04T00:50:57.662Z,2.70
2023-01-04T00:53:25.152Z,2.30
2023-01-04T00:55:59.643Z,2.40
2023-01-04T00:58:27.162Z,2.70
2023-01-04T01:00:54.709Z,2.53
2023-01-04T01:03:22.371Z,2.45
2023-01-04T01:05:50.061Z,2.60
2023-01-04T01:08:26.414Z,2.30
2023-01-04T01:10:55.913Z,2.33
2023-01-04T01:13:24.065Z,2.43
2023-01-04T01:15:51.668Z,2.40
2023-01-04T01:18:19.228Z,2.20
2023-01-04T01:20:47.108Z,2.25
2023-01-04T01:23:15.910Z,2.33
2023-01-04T01:25:43.662Z,2.10
2023-01-04T01:28:12.523Z,1.88
2023-01-04T01:30:41.833Z,2.30
2023-01-04T01:33:09.811Z,2.00
2023-01-04T01:35:37.999Z,2.47
2023-01-04T01:38:05.826Z,2.10
2023-01-04T01:40:33.430Z,1.98
2023-01-04T01:43:00.971Z,2.00
2023-01-04T01:45:32.512Z,2.10
2023-01-04T01:48:06.139Z,2.15
2023-01-04T01:50:40.613Z,2.00
2023-01-04T01:53:10.586Z,2.03
2023-01-04T01:55:41.366Z,1.90
2023-01-04T01:58:13.289Z,2.00
2023-01-04T02:00:42.159Z,2.33
2023-01-04T02:03:17.031Z,1.80
2023-01-04T02:05:46.119Z,2.00
2023-01-04T02:08:15.655Z,2.25
2023-01-04T02:10:43.197Z,2.00
2023-01-04T02:13:13.125Z,2.28
2023-01-04T02:15:56.132Z,2.20
2023-01-04T02:18:28.678Z,2.17
2023-01-04T02:21:02.650Z,1.73
2023-01-04T02:24:16.589Z,1.88
2023-01-04T02:27:13.146Z,2.10
2023-01-04T02:30:11.210Z,1.70
2023-01-04T02:32:55.584Z,1.77
2023-01-04T02:35:30.484Z,1.77
2023-01-04T02:38:07.111Z,2.00
2023-01-04T02:40:45.808Z,2.10
2023-01-04T02:43:38.994Z,1.80
2023-01-04T02:46:10.895Z,2.38
2023-01-04T02:48:59.154Z,2.17
2023-01-04T02:51:30.260Z,2.17
2023-01-04T02:54:00.823Z,1.88
2023-01-04T02:56:40.225Z,1.80
2023-01-04T02:59:28.936Z,1.95
2023-01-04T03:02:27.234Z,2.25
2023-01-04T03:05:29.057Z,1.98
2023-01-04T03:08:06.713Z,1.98
2023-01-04T03:10:39.868Z,2.10
2023-01-04T03:13:13.576Z,1.83
2023-01-04T03:15:43.699Z,2.30
2023-01-04T03:18:17.053Z,2.00
2023-01-04T03:20:48.019Z,2.13
2023-01-04T03:23:38.337Z,2.23
2023-01-04T03:26:28.711Z,1.85
2023-01-04T03:29:15.953Z,1.75
2023-01-04T03:32:05.692Z,2.30
2023-01-04T03:34:51.083Z,2.00
2023-01-04T03:37:24.201Z,2.10
2023-01-04T03:40:28.075Z,2.30
2023-01-04T03:43:21.930Z,1.90
2023-01-04T03:46:10.292Z,1.88
2023-01-04T03:48:44.880Z,1.95
2023-01-04T03:51:16.521Z,2.00
2023-01-04T03:53:53.829Z,2.22
2023-01-04T03:56:23.954Z,2.53
2023-01-04T03:58:52.418Z,2.08
2023-01-04T04:01:21.734Z,2.05
2023-01-04T04:04:07.109Z,2.50
2023-01-04T04:06:52.309Z,2.00
2023-01-04T04:09:21.223Z,2.20
2023-01-04T04:11:48.871Z,2.40
2023-01-04T04:14:16.593Z,2.20
2023-01-04T04:16:44.181Z,2.20
2023-01-04T04:19:11.930Z,2.40
2023-01-04T04:21:39.601Z,2.05
2023-01-04T04:24:07.958Z,2.50
2023-01-04T04:26:36.806Z,2.25
2023-01-04T04:29:04.408Z,1.97
2023-01-04T04:31:31.977Z,1.90
2023-01-04T04:33:59.593Z,2.10
2023-01-04T04:36:27.100Z,2.40
2023-01-04T04:38:54.661Z,2.50
2023-01-04T04:41:39.674Z,2.20
2023-01-04T04:44:09.900Z,2.30
2023-01-04T04:46:37.450Z,2.63
2023-01-04T04:49:05.777Z,2.58
2023-01-04T04:51:33.834Z,2.20
2023-01-04T04:54:01.675Z,2.73
2023-01-04T04:56:29.501Z,2.42
2023-01-04T04:58:57.011Z,2.45
2023-01-04T05:01:26.152Z,2.60
2023-01-04T05:03:53.810Z,2.50
2023-01-04T05:06:21.543Z,3.00
2023-01-04T05:08:49.130Z,2.72
2023-01-04T05:11:16.731Z,2.40
2023-01-04T05:13:43.341Z,2.70
2023-01-04T05:16:11.421Z,2.78
2023-01-04T05:18:40.377Z,2.57
2023-01-04T05:21:07.967Z,2.70
2023-01-04T05:23:35.557Z,2.72
2023-01-04T05:26:03.632Z,2.78
2023-01-04T05:28:31.167Z,2.88
2023-01-04T05:30:57.803Z,3.00
2023-01-04T05:33:27.379Z,2.50
2023-01-04T05:35:57.728Z,3.10
2023-01-04T05:38:25.850Z,2.42
2023-01-04T05:40:53.895Z,2.50
2023-01-04T05:43:22.860Z,2.50
2023-01-04T05:45:51.889Z,2.28
2023-01-04T05:48:19.985Z,2.40
2023-01-04T05:50:48.206Z,2.60
2023-01-04T05:53:18.822Z,2.40
2023-01-04T05:55:48.538Z,2.30
2023-01-04T05:58:16.160Z,2.30
2023-01-04T06:00:43.687Z,2.45
2023-01-04T06:03:11.378Z,2.17
2023-01-04T06:05:39.036Z,2.20
2023-01-04T06:08:07.503Z,1.90
2023-01-04T06:10:36.399Z,2.33
2023-01-04T06:13:03.996Z,2.05
2023-01-04T06:15:31.547Z,2.20
2023-01-04T06:17:59.143Z,2.13
2023-01-04T06:20:26.740Z,2.40
2023-01-04T06:22:54.296Z,2.20
2023-01-04T06:25:21.847Z,5.18
2023-01-04T06:27:50.743Z,2.50
2023-01-04T06:30:18.530Z,2.47
2023-01-04T06:32:46.058Z,2.30
2023-01-04T06:35:13.559Z,2.55
2023-01-04T06:37:41.127Z,2.30
2023-01-04T06:40:10.352Z,2.40
2023-01-04T06:42:47.035Z,2.45
2023-01-04T06:45:17.256Z,2.57
2023-01-04T06:47:47.764Z,2.40
2023-01-04T06:50:15.383Z,2.17
2023-01-04T06:52:43.000Z,2.13
2023-01-04T06:55:11.078Z,2.63
2023-01-04T06:57:38.687Z,2.30
2023-01-04T07:00:07.452Z,2.20
2023-01-04T07:02:36.425Z,2.60
2023-01-04T07:05:04.855Z,3.10
2023-01-04T07:07:33.642Z,2.80
2023-01-04T07:10:07.077Z,2.60
2023-01-04T07:12:37.684Z,2.50
2023-01-04T07:15:39.168Z,2.42
2023-01-04T07:17:54.919Z,2.78
2023-01-04T07:20:22.512Z,2.90
2023-01-04T07:22:50.096Z,2.70
2023-01-04T07:25:17.716Z,2.72
2023-01-04T07:27:45.478Z,3.00
2023-01-04T07:30:14.185Z,3.45
2023-01-04T07:32:41.726Z,3.30
2023-01-04T07:35:10.902Z,3.30
2023-01-04T07:37:38.514Z,2.83
2023-01-04T07:40:07.329Z,3.30
2023-01-04T07:42:34.849Z,3.30
2023-01-04T07:45:02.430Z,3.35
2023-01-04T07:47:30.009Z,3.30
2023-01-04T07:49:57.631Z,3.13
2023-01-04T07:52:26.767Z,3.20
2023-01-04T07:54:55.075Z,3.47
2023-01-04T07:57:22.598Z,3.53
2023-01-04T07:59:50.159Z,3.60
2023-01-04T08:02:18.077Z,3.90
2023-01-04T08:04:45.851Z,4.03
2023-01-04T08:07:13.510Z,4.28
2023-01-04T08:09:42.337Z,4.32
2023-01-04T08:12:09.879Z,4.40
2023-01-04T08:14:37.382Z,4.35
2023-01-04T08:17:04.924Z,4.60
2023-01-04T08:19:32.512Z,5.00
2023-01-04T08:22:00.011Z,5.38
2023-01-04T08:24:27.856Z,5.17
2023-01-04T08:26:56.745Z,4.10
2023-01-04T08:29:26.926Z,4.43
2023-01-04T08:31:57.002Z,4.20
2023-01-04T08:34:24.511Z,3.92
2023-01-04T08:36:53.228Z,4.20
2023-01-04T08:39:21.635Z,4.47
2023-01-04T08:41:59.471Z,4.85
2023-01-04T08:44:29.964Z,7.53
2023-01-04T08:46:58.770Z,5.40
2023-01-04T08:49:27.500Z,5.53
2023-01-04T08:51:55.043Z,5.90
2023-01-04T08:54:23.619Z,6.10
2023-01-04T08:56:51.226Z,4.70
2023-01-04T08:59:18.802Z,4.38
2023-01-04T09:01:47.879Z,4.33
2023-01-04T09:04:15.618Z,4.35
2023-01-04T09:06:43.206Z,4.10
2023-01-04T09:09:10.856Z,4.28
2023-01-04T09:11:39.610Z,3.90
2023-01-04T09:14:09.329Z,3.93
2023-01-04T09:16:37.872Z,3.70
2023-01-04T09:19:07.782Z,4.07
2023-01-04T09:21:35.656Z,4.32
2023-01-04T09:24:03.524Z,4.07
2023-01-04T09:26:31.392Z,3.80
2023-01-04T09:28:59.116Z,5.43
2023-01-04T09:31:28.594Z,4.50
2023-01-04T09:34:15.316Z,3.55
2023-01-04T09:36:46.280Z,3.13
2023-01-04T09:39:21.630Z,4.50
2023-01-04T09:41:56.821Z,3.20
2023-01-04T09:45:03.207Z,3.53
2023-01-04T09:47:29.538Z,3.45
2023-01-04T09:50:03.598Z,3.95
2023-01-04T09:52:56.239Z,3.80
2023-01-04T09:55:37.742Z,3.60
2023-01-04T09:58:18.669Z,3.38
2023-01-04T10:00:48.777Z,3.20
2023-01-04T10:03:20.098Z,3.53
2023-01-04T10:05:48.043Z,5.30
2023-01-04T10:08:19.966Z,3.00
2023-01-04T10:10:51.711Z,4.70
2023-01-04T10:13:48.081Z,3.90
2023-01-04T10:16:44.157Z,2.72
2023-01-04T10:21:10.243Z,6.67
2023-01-04T10:22:17.157Z,3.03
2023-01-04T10:24:53.467Z,3.30
2023-01-04T10:27:34.343Z,2.30
2023-01-04T10:30:17.372Z,2.13
2023-01-04T10:32:46.815Z,2.10
2023-01-04T10:35:20.616Z,2.03
2023-01-04T10:37:51.317Z,1.83
2023-01-04T10:40:20.517Z,1.70
2023-01-04T10:42:57.606Z,1.88
2023-01-04T10:45:33.770Z,2.00
2023-01-04T10:48:11.340Z,1.80
2023-01-04T10:50:45.756Z,2.00
2023-01-04T10:53:19.606Z,2.08
2023-01-04T10:56:25.461Z,2.10
2023-01-04T10:58:48.154Z,2.17
2023-01-04T11:01:23.554Z,2.30
2023-01-04T11:03:56.026Z,2.10
2023-01-04T11:06:26.200Z,2.10
2023-01-04T11:08:59.130Z,2.10
2023-01-04T11:11:33.423Z,2.23
2023-01-04T11:14:01.394Z,2.10
2023-01-04T11:16:30.579Z,2.50
2023-01-04T11:18:59.188Z,2.63
2023-01-04T11:21:32.462Z,2.58
2023-01-04T11:24:30.333Z,2.33
2023-01-04T11:26:54.277Z,2.80
2023-01-04T11:29:30.818Z,2.75
2023-01-04T11:32:03.770Z,2.53
2023-01-04T11:34:50.740Z,2.58
2023-01-04T11:37:30.320Z,2.37
2023-01-04T11:40:24.572Z,2.50
2023-01-04T11:43:11.215Z,2.50
2023-01-04T11:45:39.272Z,2.47
2023-01-04T11:48:12.579Z,2.60
2023-01-04T11:50:44.099Z,2.30
2023-01-04T11:53:27.291Z,2.60
2023-01-04T11:56:20.016Z,2.50
2023-01-04T11:59:05.314Z,2.40
2023-01-04T12:01:35.153Z,3.10
2023-01-04T12:04:03.575Z,2.80
2023-01-04T12:06:37.433Z,2.55
2023-01-04T12:09:05.270Z,2.45
2023-01-04T12:11:35.842Z,2.60
2023-01-04T12:14:05.398Z,2.65
2023-01-04T12:16:46.101Z,2.67
2023-01-04T12:19:17.117Z,2.67
2023-01-04T12:21:48.291Z,2.70
2023-01-04T12:24:19.726Z,2.80
2023-01-04T12:26:48.526Z,2.78
2023-01-04T12:29:57.371Z,2.60
2023-01-04T12:32:42.968Z,2.80
2023-01-04T12:36:03.028Z,2.50
2023-01-04T12:39:00.385Z,2.42
2023-01-04T12:42:17.668Z,2.40
2023-01-04T12:45:22.140Z,2.67
2023-01-04T12:48:10.395Z,2.70
2023-01-04T12:51:31.095Z,2.50
2023-01-04T12:54:02.176Z,2.35
2023-01-04T12:57:22.890Z,2.60
2023-01-04T12:59:56.279Z,2.40
2023-01-04T13:02:25.344Z,2.38
2023-01-04T13:05:25.689Z,2.33
2023-01-04T13:07:46.392Z,2.40
2023-01-04T13:10:22.734Z,2.10
2023-01-04T13:13:11.053Z,2.20
2023-01-04T13:15:52.662Z,2.00
2023-01-04T13:18:35.286Z,2.22
2023-01-04T13:21:11.107Z,2.10
2023-01-04T13:23:40.109Z,1.80
2023-01-04T13:26:36.877Z,1.70
2023-01-04T13:29:09.875Z,1.70
2023-01-04T13:31:46.130Z,1.83
2023-01-04T13:34:20.139Z,1.80
2023-01-04T13:36:57.457Z,1.60
2023-01-04T13:39:25.411Z,2.40
2023-01-04T13:41:54.732Z,1.80
2023-01-04T13:45:00.278Z,1.70
2023-01-04T13:47:21.470Z,1.90
2023-01-04T13:49:49.308Z,1.80
2023-01-04T13:55:11.487Z,1.70
2023-01-04T13:57:39.082Z,2.22
2023-01-04T14:00:08.247Z,1.90
2023-01-04T14:02:38.988Z,1.90
2023-01-04T14:05:07.932Z,2.20
2023-01-04T14:07:36.941Z,1.70
2023-01-04T14:10:04.912Z,1.67
2023-01-04T14:12:32.531Z,2.05
2023-01-04T14:15:15.233Z,1.60
2023-01-04T14:17:50.761Z,2.00
2023-01-04T14:20:35.281Z,1.80
2023-01-04T14:23:05.021Z,1.90
2023-01-04T14:25:44.707Z,1.92
2023-01-04T14:28:48.657Z,2.08
2023-01-04T14:31:29.305Z,1.70
2023-01-04T14:33:57.308Z,1.73
2023-01-04T14:36:28.126Z,2.33
2023-01-04T14:39:10.880Z,1.90
2023-01-04T14:41:40.275Z,2.08
2023-01-04T14:44:13.967Z,1.40
2023-01-04T14:46:43.491Z,1.95
2023-01-04T14:49:11.334Z,1.95
2023-01-04T14:51:42.202Z,1.70
2023-01-04T14:54:17.467Z,1.75
2023-01-04T14:56:48.305Z,2.20
2023-01-04T14:59:15.797Z,2.45
2023-01-04T15:01:43.492Z,1.83
2023-01-04T15:04:11.214Z,2.10
2023-01-04T15:06:48.024Z,1.90
2023-01-04T15:09:16.973Z,2.10
2023-01-04T15:11:44.513Z,2.03
2023-01-04T15:14:12.081Z,2.35
2023-01-04T15:16:40.077Z,2.58
2023-01-04T15:19:07.708Z,1.98
2023-01-04T15:21:40.964Z,2.10
2023-01-04T15:24:09.630Z,2.35
2023-01-04T15:26:38.891Z,2.22
2023-01-04T15:29:07.142Z,2.03
2023-01-04T15:31:39.560Z,2.47
2023-01-04T15:34:08.044Z,2.20
2023-01-04T15:36:38.474Z,2.38
2023-01-04T15:39:06.690Z,2.70
2023-01-04T15:41:52.156Z,2.97
2023-01-04T15:44:21.022Z,2.70
2023-01-04T15:46:50.520Z,2.57
2023-01-04T15:49:18.304Z,2.72
2023-01-04T15:51:46.140Z,2.20
2023-01-04T15:54:13.782Z,2.47
2023-01-04T15:56:41.362Z,2.13
2023-01-04T15:59:09.068Z,2.40
2023-01-04T16:01:37.976Z,2.50
2023-01-04T16:04:06.817Z,2.58
2023-01-04T16:06:35.061Z,2.47
2023-01-04T16:09:02.619Z,2.40
2023-01-04T16:11:30.577Z,2.63
2023-01-04T16:13:58.632Z,2.97
2023-01-04T16:16:28.348Z,2.25
2023-01-04T16:18:58.073Z,2.45
2023-01-04T16:21:28.220Z,2.40
2023-01-04T16:24:03.856Z,2.20
2023-01-04T16:26:32.980Z,2.33
2023-01-04T16:29:00.702Z,2.40
2023-01-04T16:31:34.056Z,2.20
2023-01-04T16:34:03.767Z,2.05
2023-01-04T16:36:31.459Z,2.50
2023-01-04T16:38:59.001Z,2.63
2023-01-04T16:41:26.536Z,2.80
2023-01-04T16:43:58.724Z,2.38
2023-01-04T16:46:28.389Z,3.03
2023-01-04T16:48:57.772Z,2.77
2023-01-04T16:51:28.291Z,2.22
2023-01-04T16:53:56.747Z,2.30
2023-01-04T16:56:25.571Z,2.55
2023-01-04T16:58:53.355Z,2.65
2023-01-04T17:01:23.489Z,2.50
2023-01-04T17:03:54.967Z,2.28
2023-01-04T17:06:24.635Z,2.67
2023-01-04T17:08:55.267Z,2.70
2023-01-04T17:12:11.459Z,2.50
2023-01-04T17:14:14.107Z,2.70
2023-01-04T17:16:42.243Z,2.40
2023-01-04T17:19:10.643Z,3.58
2023-01-04T17:21:38.155Z,2.47
2023-01-04T17:24:07.872Z,2.10
2023-01-04T17:26:35.447Z,2.30
2023-01-04T17:29:03.585Z,2.28
2023-01-04T17:31:33.323Z,2.80
2023-01-04T17:34:01.247Z,2.53
2023-01-04T17:36:28.857Z,2.20
2023-01-04T17:38:56.433Z,2.30
2023-01-04T17:41:26.920Z,2.83
2023-01-04T17:44:00.021Z,2.30
2023-01-04T17:46:31.680Z,2.75
2023-01-04T17:49:21.608Z,3.13
2023-01-04T17:51:47.555Z,2.63
2023-01-04T17:54:15.280Z,3.10
2023-01-04T17:56:44.141Z,2.58
2023-01-04T17:59:12.366Z,3.13
2023-01-04T18:01:40.069Z,2.92
2023-01-04T18:04:08.911Z,2.93
2023-01-04T18:06:37.622Z,2.72
2023-01-04T18:09:07.025Z,3.42
2023-01-04T18:11:35.453Z,3.60
2023-01-04T18:14:08.069Z,2.60
2023-01-04T18:16:56.423Z,3.93
2023-01-04T18:19:26.089Z,3.10
2023-01-04T18:21:53.844Z,3.58
2023-01-04T18:24:38.374Z,3.05
2023-01-04T18:27:24.334Z,3.22
2023-01-04T18:29:56.476Z,3.27
2023-01-04T18:32:26.001Z,3.90
2023-01-04T18:34:53.707Z,3.70
2023-01-04T18:37:21.749Z,3.55
2023-01-04T18:39:49.791Z,3.55
2023-01-04T18:42:17.476Z,3.10
2023-01-04T18:44:48.901Z,3.83
2023-01-04T18:47:19.629Z,3.88
2023-01-04T18:49:47.286Z,3.22
2023-01-04T18:52:14.968Z,3.30
2023-01-04T18:54:42.926Z,3.33
2023-01-04T18:57:10.453Z,3.70
2023-01-04T18:59:37.976Z,3.83
2023-01-04T19:02:05.778Z,3.33
2023-01-04T19:04:36.043Z,2.85
2023-01-04T19:07:03.701Z,2.73
2023-01-04T19:09:31.456Z,3.00
2023-01-04T19:11:59.025Z,3.42
2023-01-04T19:14:26.584Z,2.95
2023-01-04T19:16:54.190Z,3.28
2023-01-04T19:19:21.836Z,2.30
2023-01-04T19:21:50.677Z,3.13
2023-01-04T19:24:18.351Z,2.92
2023-01-04T19:26:45.932Z,3.30
2023-01-04T19:29:13.451Z,3.35
2023-01-04T19:31:41.001Z,3.83
2023-01-04T19:34:09.715Z,3.45
2023-01-04T19:36:37.615Z,2.90
2023-01-04T19:39:09.039Z,3.45
2023-01-04T19:41:38.013Z,3.13
2023-01-04T19:44:08.177Z,3.73
2023-01-04T19:46:37.917Z,3.38
2023-01-04T19:49:09.444Z,3.05
2023-01-04T19:51:43.672Z,3.22
2023-01-04T19:54:12.884Z,3.20
2023-01-04T19:56:40.905Z,3.73
2023-01-04T19:59:08.503Z,3.70
2023-01-04T20:01:36.362Z,3.25
2023-01-04T20:04:04.699Z,3.03
2023-01-04T20:06:33.025Z,2.97
2023-01-04T20:09:00.542Z,3.03
2023-01-04T20:11:29.481Z,3.20
2023-01-04T20:13:57.051Z,3.50
2023-01-04T20:16:24.643Z,3.80
2023-01-04T20:18:55.357Z,3.15
2023-01-04T20:21:23.073Z,3.00
2023-01-04T20:23:50.714Z,3.80
2023-01-04T20:26:19.439Z,2.90
2023-01-04T20:28:48.591Z,3.30
2023-01-04T20:31:18.304Z,2.53
2023-01-04T20:33:47.427Z,1.97
2023-01-04T20:36:17.391Z,2.58
2023-01-04T20:38:46.886Z,2.30
2023-01-04T20:41:17.241Z,2.10
2023-01-04T20:43:44.918Z,2.42
2023-01-04T20:46:16.134Z,1.90
2023-01-04T20:48:44.408Z,2.00
2023-01-04T20:51:15.081Z,1.80
2023-01-04T20:53:42.671Z,2.30
2023-01-04T20:56:14.134Z,2.00
2023-01-04T20:58:41.757Z,1.90
2023-01-04T21:01:09.985Z,2.38
2023-01-04T21:03:39.192Z,2.58
2023-01-04T21:06:08.971Z,2.08
2023-01-04T21:08:37.500Z,2.42
2023-01-04T21:11:05.358Z,2.77
2023-01-04T21:13:33.336Z,3.10
2023-01-04T21:16:01.374Z,2.97
2023-01-04T21:18:28.955Z,2.92
2023-01-04T21:20:57.886Z,2.70
2023-01-04T21:23:27.511Z,2.97
2023-01-04T21:25:56.917Z,2.75
2023-01-04T21:28:24.487Z,3.25
2023-01-04T21:30:52.117Z,3.00
2023-01-04T21:33:19.668Z,3.25
2023-01-04T21:35:47.193Z,2.93
2023-01-04T21:38:16.005Z,4.35
2023-01-04T21:40:43.578Z,3.00
2023-01-04T21:43:17.488Z,2.92
2023-01-04T21:45:45.291Z,3.28
2023-01-04T21:48:12.799Z,2.90
2023-01-04T21:50:40.300Z,3.13
2023-01-04T21:53:07.835Z,3.25
2023-01-04T21:55:36.715Z,2.97
2023-01-04T21:58:04.338Z,3.03
2023-01-04T22:00:31.853Z,2.43
2023-01-04T22:02:59.395Z,3.67
2023-01-04T22:05:27.009Z,3.00
2023-01-04T22:07:54.564Z,3.13
2023-01-04T22:10:22.147Z,2.47
2023-01-04T22:12:51.343Z,2.33
2023-01-04T22:15:18.872Z,2.28
2023-01-04T22:17:46.429Z,3.30
2023-01-04T22:20:13.959Z,2.85
2023-01-04T22:22:41.775Z,2.60
2023-01-04T22:25:09.964Z,3.00
2023-01-04T22:27:37.584Z,2.75
2023-01-04T22:30:07.894Z,2.90
2023-01-04T22:32:35.439Z,3.13
2023-01-04T22:35:03.009Z,2.50
2023-01-04T22:37:30.496Z,2.67
2023-01-04T22:39:58.022Z,3.05
2023-01-04T22:42:25.589Z,2.55
2023-01-04T22:44:53.532Z,2.78
2023-01-04T22:47:22.425Z,2.38
2023-01-04T22:49:50.005Z,2.70
2023-01-04T22:52:17.537Z,2.70
2023-01-04T22:54:45.064Z,2.50
2023-01-04T22:57:12.619Z,3.08
2023-01-04T22:59:40.171Z,2.30
2023-01-04T23:02:07.882Z,3.20
2023-01-04T23:04:36.751Z,2.03
2023-01-04T23:07:04.483Z,3.10
2023-01-04T23:09:31.991Z,2.75
2023-01-04T23:11:59.490Z,2.53
2023-01-04T23:14:27.037Z,2.50
2023-01-04T23:16:54.679Z,2.63
2023-01-04T23:19:22.263Z,2.40
2023-01-04T23:21:51.094Z,2.45
2023-01-04T23:24:18.588Z,2.30
2023-01-04T23:26:47.066Z,3.50
2023-01-04T23:29:14.624Z,2.70
2023-01-04T23:31:42.336Z,2.75
2023-01-04T23:34:13.323Z,2.75
2023-01-04T23:36:42.851Z,2.45
2023-01-04T23:39:14.637Z,2.50
2023-01-04T23:41:45.632Z,3.10
2023-01-04T23:44:15.849Z,2.63
2023-01-04T23:46:43.858Z,2.97
2023-01-04T23:49:11.925Z,2.40
2023-01-04T23:51:40.066Z,2.47
2023-01-04T23:54:08.815Z,2.95
2023-01-04T23:56:39.044Z,3.80
2023-01-04T23:59:07.347Z,2.58
